Time;durP1;ratioP1;P1;durP2;ratioP2;P2;SDS_P1;SDS_P2;PMS_P1;PMS_P2;Temp;Humidity;BMP_temperature;BMP_pressure;BME280_temperature;BME280_humidity;BME280_pressure;Samples;Min_cycle;Max_cycle;Signal;HPM_P1;HPM_P2
2022/07/10 00:02:05;;;;;;;27.52;14.57;;;;;;;;;;5015908;28;20105;-78
2022/07/10 00:04:31;;;;;;;6.82;5.22;;;;;;;;;;5033769;28;20038;-78
2022/07/10 00:06:58;;;;;;;3.38;3.05;;;;;;;;;;5033581;28;20029;-77
2022/07/10 00:09:28;;;;;;;3.60;3.30;;;;;;;;;;5036404;28;20081;-77
2022/07/10 00:11:53;;;;;;;4.70;3.10;;;;;;;;;;5037802;28;20041;-78
2022/07/10 00:14:20;;;;;;;3.90;3.65;;;;;;;;;;5019695;28;20049;-78
2022/07/10 00:16:46;;;;;;;4.25;3.85;;;;;;;;;;5037555;28;20085;-77
2022/07/10 00:19:12;;;;;;;3.33;3.08;;;;;;;;;;5051341;22;20077;-78
2022/07/10 00:21:37;;;;;;;4.38;3.97;;;;;;;;;;5019104;28;20403;-79
2022/07/10 00:24:04;;;;;;;4.43;4.03;;;;;;;;;;5037285;28;20104;-80
2022/07/10 00:26:29;;;;;;;3.92;3.58;;;;;;;;;;5037479;28;20463;-79
2022/07/10 00:28:55;;;;;;;7.45;5.05;;;;;;;;;;5037513;28;20041;-79
2022/07/10 00:31:20;;;;;;;16.92;7.93;;;;;;;;;;5037344;28;20040;-79
2022/07/10 00:33:47;;;;;;;17.40;7.72;;;;;;;;;;5036528;28;20049;-78
2022/07/10 00:36:13;;;;;;;6.80;4.68;;;;;;;;;;5037300;28;20124;-79
2022/07/10 00:38:39;;;;;;;5.97;3.53;;;;;;;;;;5037605;28;20053;-79
2022/07/10 00:41:05;;;;;;;4.60;3.40;;;;;;;;;;5037144;28;20044;-78
2022/07/10 00:43:50;;;;;;;4.53;3.45;;;;;;;;;;5036984;28;20120;-77
2022/07/10 00:46:20;;;;;;;7.05;3.88;;;;;;;;;;5037046;28;20038;-77
2022/07/10 00:48:45;;;;;;;11.75;3.60;;;;;;;;;;5037176;28;20025;-77
2022/07/10 00:51:11;;;;;;;7.90;5.45;;;;;;;;;;5036984;28;20092;-77
2022/07/10 00:53:36;;;;;;;25.05;14.80;;;;;;;;;;5037071;28;20033;-77
2022/07/10 00:56:02;;;;;;;13.00;8.85;;;;;;;;;;5020086;28;20049;-77
2022/07/10 00:58:27;;;;;;;10.80;6.93;;;;;;;;;;5036807;28;20036;-77
2022/07/10 01:00:53;;;;;;;6.93;4.65;;;;;;;;;;5018826;28;20553;-77
2022/07/10 01:03:18;;;;;;;6.10;4.53;;;;;;;;;;5036924;28;20114;-77
2022/07/10 01:05:43;;;;;;;6.00;4.65;;;;;;;;;;5036537;28;20061;-76
2022/07/10 01:08:09;;;;;;;6.70;5.05;;;;;;;;;;5019037;28;20053;-77
2022/07/10 01:10:34;;;;;;;7.80;4.55;;;;;;;;;;5036519;28;20479;-77
2022/07/10 01:13:01;;;;;;;7.82;5.45;;;;;;;;;;5037087;28;20109;-77
2022/07/10 01:15:26;;;;;;;11.45;5.45;;;;;;;;;;5036815;28;20100;-77
2022/07/10 01:17:53;;;;;;;7.60;5.28;;;;;;;;;;5036330;28;20399;-77
2022/07/10 01:20:18;;;;;;;7.28;5.30;;;;;;;;;;5035190;28;20438;-76
2022/07/10 01:22:44;;;;;;;5.95;5.03;;;;;;;;;;5036262;28;20044;-77
2022/07/10 01:25:11;;;;;;;6.18;5.15;;;;;;;;;;5036463;28;20087;-77
2022/07/10 01:27:36;;;;;;;8.23;5.32;;;;;;;;;;5036164;28;20026;-77
2022/07/10 01:30:02;;;;;;;8.65;5.68;;;;;;;;;;5035965;28;20492;-77
2022/07/10 01:32:35;;;;;;;7.63;5.53;;;;;;;;;;5018314;28;20036;-77
2022/07/10 01:35:01;;;;;;;5.07;4.55;;;;;;;;;;5036306;28;20034;-77
2022/07/10 01:37:26;;;;;;;8.77;5.07;;;;;;;;;;5036031;28;20030;-78
2022/07/10 01:39:52;;;;;;;13.45;6.85;;;;;;;;;;5036131;28;20090;-82
2022/07/10 01:42:19;;;;;;;6.38;5.10;;;;;;;;;;5034722;28;20025;-81
2022/07/10 01:44:44;;;;;;;5.07;4.25;;;;;;;;;;5036120;28;20033;-81
2022/07/10 01:47:10;;;;;;;4.13;3.72;;;;;;;;;;5034520;28;20025;-81
2022/07/10 01:49:37;;;;;;;4.38;3.70;;;;;;;;;;5035609;28;20067;-81
2022/07/10 01:52:03;;;;;;;5.90;4.07;;;;;;;;;;5034662;28;20069;-81
2022/07/10 01:54:34;;;;;;;6.45;4.07;;;;;;;;;;5035815;28;20107;-81
2022/07/10 01:56:59;;;;;;;5.80;4.05;;;;;;;;;;5017891;28;20447;-78
2022/07/10 01:59:25;;;;;;;4.82;3.58;;;;;;;;;;5035512;28;20029;-78
2022/07/10 02:01:50;;;;;;;5.20;3.38;;;;;;;;;;5017682;28;20121;-78
2022/07/10 02:07:00;;;;;;;3.60;3.30;;;;;;;;;;5035712;28;20551;-81
2022/07/10 02:09:25;;;;;;;3.70;3.35;;;;;;;;;;5035401;28;20057;-81
2022/07/10 02:11:50;;;;;;;4.00;3.53;;;;;;;;;;5035320;28;20025;-79
2022/07/10 02:14:16;;;;;;;5.53;3.63;;;;;;;;;;5035542;28;20026;-79
2022/07/10 02:16:41;;;;;;;5.47;3.45;;;;;;;;;;5035258;28;20037;-80
2022/07/10 02:19:06;;;;;;;4.68;3.33;;;;;;;;;;5024062;28;20042;-80
2022/07/10 02:21:32;;;;;;;4.15;3.42;;;;;;;;;;5015594;28;20042;-80
2022/07/10 02:23:57;;;;;;;6.28;3.33;;;;;;;;;;4998452;28;20018;-80
2022/07/10 02:26:22;;;;;;;4.93;4.43;;;;;;;;;;5015276;28;20388;-79
2022/07/10 02:28:48;;;;;;;5.30;3.85;;;;;;;;;;5015537;28;20030;-79
2022/07/10 02:31:13;;;;;;;6.00;4.40;;;;;;;;;;5015100;28;20033;-79
2022/07/10 02:33:39;;;;;;;4.40;4.00;;;;;;;;;;5014352;28;20033;-80
2022/07/10 02:36:05;;;;;;;5.20;4.70;;;;;;;;;;4997918;28;20042;-81
2022/07/10 02:38:30;;;;;;;6.93;4.45;;;;;;;;;;5015335;28;20096;-80
2022/07/10 02:40:55;;;;;;;8.32;4.32;;;;;;;;;;4997676;28;20045;-79
2022/07/10 02:43:21;;;;;;;4.35;3.95;;;;;;;;;;4997443;28;20026;-80
2022/07/10 02:45:46;;;;;;;5.38;4.80;;;;;;;;;;4997353;28;20392;-79
2022/07/10 02:48:14;;;;;;;4.97;3.95;;;;;;;;;;5014910;28;20029;-80
2022/07/10 02:50:39;;;;;;;6.78;4.07;;;;;;;;;;5015071;28;20049;-73
2022/07/10 02:53:04;;;;;;;4.07;3.58;;;;;;;;;;5015084;28;20030;-73
2022/07/10 02:55:31;;;;;;;7.07;3.88;;;;;;;;;;4997175;28;20041;-73
2022/07/10 02:57:57;;;;;;;3.90;3.60;;;;;;;;;;5014751;28;20034;-72
2022/07/10 03:00:22;;;;;;;4.20;3.55;;;;;;;;;;5014900;28;20042;-72
2022/07/10 03:02:48;;;;;;;5.32;3.85;;;;;;;;;;5014646;28;20361;-73
2022/07/10 03:05:13;;;;;;;5.47;3.90;;;;;;;;;;5014577;28;20104;-73
2022/07/10 03:07:39;;;;;;;6.82;4.70;;;;;;;;;;5014582;28;20034;-73
2022/07/10 03:10:04;;;;;;;4.30;4.00;;;;;;;;;;5014782;28;20531;-72
2022/07/10 03:12:30;;;;;;;9.13;4.07;;;;;;;;;;5014539;28;20036;-72
2022/07/10 03:14:55;;;;;;;5.25;4.75;;;;;;;;;;5014958;28;20042;-72
2022/07/10 03:17:21;;;;;;;7.97;4.60;;;;;;;;;;5014474;28;20084;-72
2022/07/10 03:19:46;;;;;;;5.13;4.63;;;;;;;;;;5029320;28;20037;-72
2022/07/10 03:22:11;;;;;;;4.63;3.80;;;;;;;;;;5034324;28;20048;-72
2022/07/10 03:24:37;;;;;;;5.07;4.05;;;;;;;;;;5016760;28;20092;-72
2022/07/10 03:27:02;;;;;;;5.20;3.92;;;;;;;;;;5034186;28;20519;-72
2022/07/10 03:29:28;;;;;;;4.57;4.03;;;;;;;;;;5034262;28;20034;-72
2022/07/10 03:31:53;;;;;;;4.00;3.70;;;;;;;;;;5034500;28;20088;-72
2022/07/10 03:34:19;;;;;;;21.75;4.53;;;;;;;;;;5033874;28;20484;-73
2022/07/10 03:36:44;;;;;;;47.28;5.22;;;;;;;;;;5033849;28;20419;-72
2022/07/10 03:39:10;;;;;;;60.70;7.68;;;;;;;;;;5034127;28;20456;-72
2022/07/10 03:41:35;;;;;;;7.30;4.15;;;;;;;;;;5033732;28;20490;-71
2022/07/10 03:44:01;;;;;;;8.30;4.78;;;;;;;;;;5033359;28;20124;-72
2022/07/10 03:46:26;;;;;;;5.65;4.25;;;;;;;;;;5034035;28;20037;-72
2022/07/10 03:48:51;;;;;;;5.05;4.57;;;;;;;;;;5034274;28;20053;-72
2022/07/10 03:51:17;;;;;;;4.38;4.05;;;;;;;;;;5016025;28;20068;-71
2022/07/10 03:53:42;;;;;;;4.63;4.22;;;;;;;;;;5033933;28;20050;-72
2022/07/10 03:56:08;;;;;;;4.85;4.38;;;;;;;;;;5016358;28;20034;-72
2022/07/10 03:58:33;;;;;;;5.20;4.78;;;;;;;;;;5034648;28;20486;-72
2022/07/10 04:00:58;;;;;;;5.22;4.72;;;;;;;;;;5015781;28;20148;-72
2022/07/10 04:03:24;;;;;;;5.32;4.80;;;;;;;;;;5033792;28;20116;-72
2022/07/10 04:05:49;;;;;;;5.88;4.35;;;;;;;;;;5032253;28;20032;-73
2022/07/10 04:08:15;;;;;;;5.15;4.55;;;;;;;;;;5033472;28;20095;-72
2022/07/10 04:10:40;;;;;;;6.30;4.93;;;;;;;;;;5033769;28;20034;-72
2022/07/10 04:13:05;;;;;;;5.40;4.25;;;;;;;;;;5033608;28;20096;-73
2022/07/10 04:15:39;;;;;;;5.22;4.75;;;;;;;;;;5033765;28;20029;-72
2022/07/10 04:18:04;;;;;;;4.72;3.60;;;;;;;;;;5033324;28;20034;-72
2022/07/10 04:20:30;;;;;;;5.20;3.80;;;;;;;;;;5033874;28;20052;-72
2022/07/10 04:22:56;;;;;;;4.10;3.70;;;;;;;;;;5033357;28;20064;-72
2022/07/10 04:25:21;;;;;;;4.00;3.38;;;;;;;;;;5033656;28;20026;-72
2022/07/10 04:27:47;;;;;;;3.30;3.08;;;;;;;;;;5015613;28;20041;-72
2022/07/10 04:30:12;;;;;;;3.95;2.92;;;;;;;;;;5015969;28;20065;-72
2022/07/10 04:32:37;;;;;;;2.75;2.55;;;;;;;;;;5033291;28;20029;-72
2022/07/10 04:35:03;;;;;;;2.60;2.40;;;;;;;;;;5033679;28;20508;-73
2022/07/10 04:37:29;;;;;;;3.10;2.83;;;;;;;;;;5033805;28;20460;-72
2022/07/10 04:39:54;;;;;;;2.97;2.50;;;;;;;;;;5033451;28;20087;-72
2022/07/10 04:42:19;;;;;;;3.80;2.65;;;;;;;;;;5033176;28;20127;-72
2022/07/10 04:44:45;;;;;;;3.13;2.55;;;;;;;;;;5015705;28;20021;-73
2022/07/10 04:47:11;;;;;;;2.60;2.40;;;;;;;;;;5033358;28;20033;-73
2022/07/10 04:49:36;;;;;;;3.25;2.70;;;;;;;;;;5033156;28;20072;-73
2022/07/10 04:52:01;;;;;;;2.97;2.65;;;;;;;;;;5033188;28;20476;-72
2022/07/10 04:54:27;;;;;;;3.33;3.03;;;;;;;;;;5033662;28;20057;-72
2022/07/10 04:56:52;;;;;;;3.33;2.95;;;;;;;;;;5036254;28;20034;-71
2022/07/10 04:59:18;;;;;;;3.20;3.00;;;;;;;;;;5037111;28;20053;-72
2022/07/10 05:01:43;;;;;;;2.85;2.53;;;;;;;;;;5036701;28;20119;-71
2022/07/10 05:04:09;;;;;;;2.80;2.35;;;;;;;;;;5036686;28;20033;-71
2022/07/10 05:06:34;;;;;;;3.90;2.40;;;;;;;;;;5036663;28;20033;-72
2022/07/10 05:09:00;;;;;;;2.45;2.25;;;;;;;;;;5036509;28;20410;-72
2022/07/10 05:11:26;;;;;;;2.50;2.30;;;;;;;;;;5036797;28;20075;-71
2022/07/10 05:13:51;;;;;;;3.42;2.28;;;;;;;;;;5036747;28;20064;-72
2022/07/10 05:16:17;;;;;;;2.67;2.47;;;;;;;;;;5036811;28;20038;-72
2022/07/10 05:18:43;;;;;;;2.80;2.60;;;;;;;;;;5018915;28;20051;-71
2022/07/10 05:21:09;;;;;;;2.47;2.35;;;;;;;;;;5036611;28;20041;-72
2022/07/10 05:23:34;;;;;;;3.13;2.72;;;;;;;;;;5035863;28;20468;-72
2022/07/10 05:26:00;;;;;;;2.50;2.30;;;;;;;;;;5035682;28;20040;-75
2022/07/10 05:28:25;;;;;;;2.60;2.45;;;;;;;;;;5035608;28;20049;-72
2022/07/10 05:30:51;;;;;;;2.88;2.30;;;;;;;;;;5034378;28;20446;-73
2022/07/10 05:33:17;;;;;;;2.88;2.50;;;;;;;;;;5034306;28;20078;-73
2022/07/10 05:35:51;;;;;;;2.53;2.33;;;;;;;;;;5018584;28;20063;-79
2022/07/10 05:38:17;;;;;;;2.13;2.00;;;;;;;;;;5035448;28;20041;-79
2022/07/10 05:40:43;;;;;;;5.28;2.40;;;;;;;;;;5034851;28;20033;-79
2022/07/10 05:43:11;;;;;;;2.38;2.25;;;;;;;;;;5018258;28;20038;-78
2022/07/10 05:45:37;;;;;;;2.42;2.30;;;;;;;;;;5034879;28;20028;-79
2022/07/10 05:48:03;;;;;;;2.47;2.30;;;;;;;;;;5018168;28;20132;-79
2022/07/10 05:50:28;;;;;;;2.67;2.47;;;;;;;;;;5035479;28;20061;-78
2022/07/10 05:52:54;;;;;;;2.70;2.20;;;;;;;;;;5035822;28;20064;-80
2022/07/10 05:55:19;;;;;;;2.15;1.83;;;;;;;;;;5035902;28;20025;-78
2022/07/10 05:57:45;;;;;;;1.70;1.48;;;;;;;;;;5035636;28;20038;-78
2022/07/10 06:00:10;;;;;;;3.90;1.48;;;;;;;;;;5034202;28;20471;-78
2022/07/10 06:02:40;;;;;;;1.60;1.50;;;;;;;;;;5035853;28;20037;-78
2022/07/10 06:05:06;;;;;;;1.60;1.50;;;;;;;;;;5035698;28;20053;-78
2022/07/10 06:07:31;;;;;;;3.15;1.40;;;;;;;;;;5035114;28;20033;-78
2022/07/10 06:09:57;;;;;;;2.05;1.10;;;;;;;;;;5035339;28;20040;-78
2022/07/10 06:12:26;;;;;;;1.30;1.20;;;;;;;;;;5035302;28;20035;-73
2022/07/10 06:14:51;;;;;;;1.98;1.20;;;;;;;;;;5034621;28;20722;-73
2022/07/10 06:17:17;;;;;;;1.70;1.50;;;;;;;;;;5034873;28;20053;-72
2022/07/10 06:19:42;;;;;;;1.42;1.23;;;;;;;;;;5033541;28;20510;-72
2022/07/10 06:24:52;;;;;;;1.38;1.27;;;;;;;;;;5016754;28;20065;-72
2022/07/10 06:27:17;;;;;;;2.15;1.58;;;;;;;;;;5034718;28;20484;-72
2022/07/10 06:29:43;;;;;;;2.90;1.40;;;;;;;;;;5034571;28;20048;-72
2022/07/10 06:32:08;;;;;;;4.70;1.80;;;;;;;;;;5034364;28;20022;-72
2022/07/10 06:34:34;;;;;;;1.20;1.10;;;;;;;;;;5034023;28;20109;-72
2022/07/10 06:37:00;;;;;;;2.10;1.15;;;;;;;;;;5034159;28;20480;-72
2022/07/10 06:39:26;;;;;;;1.50;1.40;;;;;;;;;;5034276;28;20091;-72
2022/07/10 06:41:51;;;;;;;1.17;1.08;;;;;;;;;;5034181;28;20037;-73
2022/07/10 06:44:16;;;;;;;1.55;1.00;;;;;;;;;;5033684;28;20025;-73
2022/07/10 06:47:55;;;;;;;2.42;1.02;;;;;;;;;;5034092;28;20491;-73
2022/07/10 06:49:28;;;;;;;2.45;1.02;;;;;;;;;;5033981;28;20112;-70
2022/07/10 06:51:53;;;;;;;4.45;1.13;;;;;;;;;;5016252;28;20129;-73
2022/07/10 06:54:19;;;;;;;1.05;0.95;;;;;;;;;;5033645;28;20042;-72
2022/07/10 06:56:44;;;;;;;1.17;0.90;;;;;;;;;;5016328;28;20120;-72
2022/07/10 06:59:10;;;;;;;3.97;1.02;;;;;;;;;;5016319;28;20087;-73
2022/07/10 07:01:35;;;;;;;2.20;0.98;;;;;;;;;;5033271;28;20041;-72
2022/07/10 07:04:01;;;;;;;1.50;0.90;;;;;;;;;;5016364;28;20129;-72
2022/07/10 07:06:26;;;;;;;2.85;1.23;;;;;;;;;;5033476;28;20032;-72
2022/07/10 07:08:51;;;;;;;2.45;1.10;;;;;;;;;;5032986;28;20396;-69
2022/07/10 07:11:17;;;;;;;1.00;0.90;;;;;;;;;;5015269;28;20034;-70
2022/07/10 07:13:42;;;;;;;3.60;0.85;;;;;;;;;;5032599;28;20041;-69
2022/07/10 07:16:09;;;;;;;2.65;0.93;;;;;;;;;;5023726;28;20564;-70
2022/07/10 07:18:37;;;;;;;2.78;1.10;;;;;;;;;;5029258;28;20494;-70
2022/07/10 07:23:46;;;;;;;6.43;1.17;;;;;;;;;;5028859;28;20038;-69
2022/07/10 07:26:12;;;;;;;3.38;1.10;;;;;;;;;;5029074;28;20036;-70
2022/07/10 07:28:37;;;;;;;1.95;0.90;;;;;;;;;;5029146;28;20419;-70
2022/07/10 07:31:03;;;;;;;0.80;0.80;;;;;;;;;;5026826;28;20072;-71
2022/07/10 07:33:28;;;;;;;1.67;0.80;;;;;;;;;;5028822;28;20144;-70
2022/07/10 07:35:53;;;;;;;1.70;0.80;;;;;;;;;;5028822;28;20038;-70
2022/07/10 07:38:19;;;;;;;1.13;0.85;;;;;;;;;;5027424;28;20069;-70
2022/07/10 07:40:45;;;;;;;2.22;0.80;;;;;;;;;;5028735;28;20390;-70
2022/07/10 07:43:11;;;;;;;1.25;0.80;;;;;;;;;;5028472;28;20064;-70
2022/07/10 07:45:37;;;;;;;2.08;1.10;;;;;;;;;;5009223;28;20021;-70
2022/07/10 07:48:02;;;;;;;1.80;0.88;;;;;;;;;;5028545;28;20029;-70
2022/07/10 07:50:29;;;;;;;1.27;0.93;;;;;;;;;;5028302;28;20025;-70
2022/07/10 07:52:55;;;;;;;1.67;0.98;;;;;;;;;;5028626;28;20094;-70
2022/07/10 07:55:21;;;;;;;2.83;1.00;;;;;;;;;;5028305;28;20037;-71
2022/07/10 07:57:50;;;;;;;1.60;0.90;;;;;;;;;;5010849;28;20511;-72
2022/07/10 08:00:19;;;;;;;1.25;0.70;;;;;;;;;;5027181;28;20069;-74
2022/07/10 08:02:45;;;;;;;1.90;0.75;;;;;;;;;;5028740;28;20124;-74
2022/07/10 08:05:10;;;;;;;1.35;1.02;;;;;;;;;;5029079;28;20109;-74
2022/07/10 08:07:37;;;;;;;1.27;0.80;;;;;;;;;;5027890;28;20499;-73
2022/07/10 08:10:03;;;;;;;1.40;0.70;;;;;;;;;;5010611;28;20109;-73
2022/07/10 08:12:28;;;;;;;1.80;0.63;;;;;;;;;;5032030;28;20045;-74
2022/07/10 08:14:54;;;;;;;2.05;0.80;;;;;;;;;;5015681;28;20392;-73
2022/07/10 08:17:19;;;;;;;1.27;0.70;;;;;;;;;;5033169;28;20065;-73
2022/07/10 08:19:45;;;;;;;2.88;0.80;;;;;;;;;;5033140;28;20506;-80
2022/07/10 08:22:10;;;;;;;1.40;0.77;;;;;;;;;;5016043;28;20037;-81
2022/07/10 08:24:36;;;;;;;2.53;0.82;;;;;;;;;;5033642;28;20021;-78
2022/07/10 08:27:02;;;;;;;1.55;0.60;;;;;;;;;;5033375;28;20063;-78
2022/07/10 08:29:28;;;;;;;3.33;0.80;;;;;;;;;;5034680;28;20036;-80
2022/07/10 08:31:57;;;;;;;1.42;0.70;;;;;;;;;;5035898;28;20045;-78
2022/07/10 08:34:23;;;;;;;1.13;0.70;;;;;;;;;;5037107;28;20045;-80
2022/07/10 08:36:49;;;;;;;2.42;0.82;;;;;;;;;;5036903;28;20468;-74
2022/07/10 08:39:16;;;;;;;1.98;0.60;;;;;;;;;;5037790;28;20051;-77
2022/07/10 08:41:42;;;;;;;1.33;0.95;;;;;;;;;;5037010;28;20076;-77
2022/07/10 08:44:08;;;;;;;1.15;0.60;;;;;;;;;;5037002;28;20038;-78
2022/07/10 08:46:35;;;;;;;3.13;0.65;;;;;;;;;;5036066;28;20525;-77
2022/07/10 08:49:03;;;;;;;1.85;0.70;;;;;;;;;;5036970;28;20037;-77
2022/07/10 08:51:40;;;;;;;1.92;0.70;;;;;;;;;;5037599;28;20037;-77
2022/07/10 08:54:07;;;;;;;1.58;0.57;;;;;;;;;;5035546;28;20550;-77
2022/07/10 08:56:33;;;;;;;4.95;0.65;;;;;;;;;;5036913;28;20037;-78
2022/07/10 08:58:59;;;;;;;2.03;0.68;;;;;;;;;;5036739;28;20044;-78
2022/07/10 09:01:24;;;;;;;3.28;0.52;;;;;;;;;;5036838;28;20035;-79
2022/07/10 09:03:52;;;;;;;3.53;0.70;;;;;;;;;;5036415;28;20364;-78
2022/07/10 09:06:18;;;;;;;0.70;0.52;;;;;;;;;;5035352;28;20391;-79
2022/07/10 09:09:01;;;;;;;3.45;0.90;;;;;;;;;;5035077;28;20034;-78
2022/07/10 09:11:29;;;;;;;2.60;0.70;;;;;;;;;;5035691;28;20038;-76
2022/07/10 09:13:55;;;;;;;2.47;0.75;;;;;;;;;;5035658;28;20117;-77
2022/07/10 09:16:28;;;;;;;2.80;0.68;;;;;;;;;;5036199;28;20443;-77
2022/07/10 09:18:54;;;;;;;4.82;0.70;;;;;;;;;;5035979;28;20049;-77
2022/07/10 09:21:20;;;;;;;1.73;0.80;;;;;;;;;;5036162;28;20438;-78
2022/07/10 09:23:46;;;;;;;2.47;0.82;;;;;;;;;;5036570;28;20029;-77
2022/07/10 09:26:12;;;;;;;2.63;0.60;;;;;;;;;;5036288;28;20045;-78
2022/07/10 09:28:37;;;;;;;1.60;0.90;;;;;;;;;;5036221;28;20428;-78
2022/07/10 09:31:02;;;;;;;1.73;0.68;;;;;;;;;;5018430;28;20048;-79
2022/07/10 09:33:30;;;;;;;1.33;0.77;;;;;;;;;;5036415;28;20036;-77
2022/07/10 09:36:07;;;;;;;0.98;0.55;;;;;;;;;;5036388;28;20418;-77
2022/07/10 09:38:45;;;;;;;2.38;0.70;;;;;;;;;;5036597;28;20049;-76
2022/07/10 09:41:41;;;;;;;2.63;0.63;;;;;;;;;;5017512;28;20391;-76
2022/07/10 09:44:08;;;;;;;1.42;0.75;;;;;;;;;;5023619;28;20041;-78
2022/07/10 09:46:34;;;;;;;3.78;0.73;;;;;;;;;;5036395;28;20025;-77
2022/07/10 09:49:09;;;;;;;1.17;0.55;;;;;;;;;;5035879;28;20091;-78
2022/07/10 09:51:45;;;;;;;3.42;0.60;;;;;;;;;;5036043;28;20041;-78
2022/07/10 09:54:11;;;;;;;4.18;0.73;;;;;;;;;;5036295;28;20049;-78
2022/07/10 09:56:42;;;;;;;1.48;0.80;;;;;;;;;;5035977;28;20034;-78
2022/07/10 09:59:12;;;;;;;3.03;0.60;;;;;;;;;;5035915;28;20037;-76
2022/07/10 10:01:42;;;;;;;3.28;0.70;;;;;;;;;;5035800;28;20041;-78
2022/07/10 10:04:08;;;;;;;1.57;0.77;;;;;;;;;;5035563;28;20431;-78
2022/07/10 10:06:36;;;;;;;2.38;0.57;;;;;;;;;;5035765;28;20283;-78
2022/07/10 10:09:07;;;;;;;1.13;0.70;;;;;;;;;;5035485;28;20029;-77
2022/07/10 10:11:35;;;;;;;1.77;0.68;;;;;;;;;;5035419;28;20045;-78
2022/07/10 10:14:00;;;;;;;2.08;0.75;;;;;;;;;;5035621;28;20030;-78
2022/07/10 10:16:27;;;;;;;1.73;0.60;;;;;;;;;;5034427;28;20044;-78
2022/07/10 10:21:36;;;;;;;1.88;0.77;;;;;;;;;;5035423;28;20041;-76
2022/07/10 10:24:02;;;;;;;2.28;0.65;;;;;;;;;;5035462;28;20036;-78
2022/07/10 10:26:28;;;;;;;1.73;0.55;;;;;;;;;;5035159;28;20472;-69
2022/07/10 10:28:56;;;;;;;1.75;0.70;;;;;;;;;;5035366;28;20036;-70
2022/07/10 10:31:22;;;;;;;0.63;0.40;;;;;;;;;;5035296;28;20052;-70
2022/07/10 10:33:48;;;;;;;3.75;0.60;;;;;;;;;;5035259;28;20030;-69
2022/07/10 10:36:16;;;;;;;1.15;0.50;;;;;;;;;;5035220;28;20482;-71
2022/07/10 10:39:02;;;;;;;1.08;0.50;;;;;;;;;;5035472;28;20034;-70
2022/07/10 10:41:36;;;;;;;1.58;0.68;;;;;;;;;;5034370;28;20380;-72
2022/07/10 10:44:08;;;;;;;1.35;0.60;;;;;;;;;;5017091;28;20033;-71
2022/07/10 10:46:34;;;;;;;1.25;0.60;;;;;;;;;;5016995;28;20041;-70
2022/07/10 10:49:07;;;;;;;2.58;0.60;;;;;;;;;;5016973;28;20021;-70
2022/07/10 10:51:51;;;;;;;1.38;0.60;;;;;;;;;;5034965;28;20087;-69
2022/07/10 10:54:16;;;;;;;0.52;0.52;;;;;;;;;;5033679;28;20458;-70
2022/07/10 10:56:41;;;;;;;0.75;0.50;;;;;;;;;;5033420;28;20080;-70
2022/07/10 10:59:07;;;;;;;0.93;0.80;;;;;;;;;;5034764;28;20029;-70
2022/07/10 11:01:32;;;;;;;2.05;0.65;;;;;;;;;;5034421;28;20026;-69
2022/07/10 11:04:04;;;;;;;1.92;1.10;;;;;;;;;;5034695;28;20042;-71
2022/07/10 11:06:48;;;;;;;1.10;0.40;;;;;;;;;;5033147;28;20128;-71
2022/07/10 11:09:24;;;;;;;3.40;0.70;;;;;;;;;;5034626;28;20038;-69
2022/07/10 11:12:00;;;;;;;1.92;0.50;;;;;;;;;;5034549;28;20041;-71
2022/07/10 11:14:28;;;;;;;1.13;0.50;;;;;;;;;;5016585;28;20072;-71
2022/07/10 11:16:54;;;;;;;0.88;0.50;;;;;;;;;;5034189;28;20120;-71
2022/07/10 11:19:21;;;;;;;1.40;0.60;;;;;;;;;;5034151;28;20124;-71
2022/07/10 11:21:47;;;;;;;1.80;0.60;;;;;;;;;;5033404;28;20084;-70
2022/07/10 11:24:33;;;;;;;6.57;0.80;;;;;;;;;;5034070;28;20050;-69
2022/07/10 11:27:02;;;;;;;1.67;0.80;;;;;;;;;;5023348;28;20399;-72
2022/07/10 11:29:35;;;;;;;2.90;0.70;;;;;;;;;;5034003;28;20022;-71
2022/07/10 11:32:01;;;;;;;4.75;0.80;;;;;;;;;;5033928;28;20377;-71
2022/07/10 11:34:36;;;;;;;0.90;0.70;;;;;;;;;;5032671;28;20518;-71
2022/07/10 11:37:02;;;;;;;2.47;0.60;;;;;;;;;;5016275;28;20502;-71
2022/07/10 11:39:27;;;;;;;4.13;0.80;;;;;;;;;;5033850;28;20046;-71
2022/07/10 11:41:53;;;;;;;1.58;0.65;;;;;;;;;;5016030;28;20056;-71
2022/07/10 11:44:20;;;;;;;1.35;0.80;;;;;;;;;;5033827;28;20109;-71
2022/07/10 11:46:49;;;;;;;1.63;0.60;;;;;;;;;;5034020;28;20033;-71
2022/07/10 11:49:14;;;;;;;4.70;0.70;;;;;;;;;;5033699;28;20025;-71
2022/07/10 11:51:40;;;;;;;3.00;0.65;;;;;;;;;;5033702;28;20041;-71
2022/07/10 11:54:11;;;;;;;2.65;0.82;;;;;;;;;;5033634;28;20510;-71
2022/07/10 11:56:41;;;;;;;2.08;0.68;;;;;;;;;;5033905;28;20041;-71
2022/07/10 11:59:08;;;;;;;1.08;0.65;;;;;;;;;;5033923;28;20045;-70
2022/07/10 12:01:43;;;;;;;2.60;0.90;;;;;;;;;;5033810;28;20037;-70
2022/07/10 12:04:09;;;;;;;2.20;0.68;;;;;;;;;;5034807;28;20033;-70
2022/07/10 12:06:36;;;;;;;1.33;0.50;;;;;;;;;;5022365;28;20029;-70
2022/07/10 12:09:04;;;;;;;1.58;0.70;;;;;;;;;;5040692;28;20025;-70
2022/07/10 12:11:29;;;;;;;2.80;0.70;;;;;;;;;;5040418;28;20029;-71
2022/07/10 12:14:07;;;;;;;1.42;0.98;;;;;;;;;;5040360;28;20045;-70
2022/07/10 12:16:35;;;;;;;3.63;0.80;;;;;;;;;;5040321;28;20041;-71
2022/07/10 12:19:00;;;;;;;1.05;0.45;;;;;;;;;;5031747;28;20038;-71
2022/07/10 12:21:25;;;;;;;1.52;0.60;;;;;;;;;;5040219;28;20044;-71
2022/07/10 12:23:51;;;;;;;1.67;0.40;;;;;;;;;;5040273;28;20033;-71
2022/07/10 12:26:16;;;;;;;1.05;0.50;;;;;;;;;;5040253;28;20112;-71
2022/07/10 12:28:49;;;;;;;1.13;0.50;;;;;;;;;;5038822;28;20400;-71
2022/07/10 12:31:24;;;;;;;3.17;0.40;;;;;;;;;;5022231;28;20073;-71
2022/07/10 12:33:57;;;;;;;0.60;0.50;;;;;;;;;;5039045;28;20468;-71
2022/07/10 12:36:23;;;;;;;1.95;0.40;;;;;;;;;;5040158;28;20039;-71
2022/07/10 12:38:55;;;;;;;1.10;0.40;;;;;;;;;;5040185;28;20434;-71
2022/07/10 12:41:24;;;;;;;0.60;0.60;;;;;;;;;;5022065;28;20049;-70
2022/07/10 12:43:50;;;;;;;1.50;0.60;;;;;;;;;;5039817;28;20021;-70
2022/07/10 12:46:15;;;;;;;3.22;0.50;;;;;;;;;;5038604;28;20038;-70
2022/07/10 12:48:47;;;;;;;0.98;0.40;;;;;;;;;;5022139;28;20498;-70
2022/07/10 12:51:18;;;;;;;0.75;0.40;;;;;;;;;;5040026;28;20400;-71
2022/07/10 12:53:47;;;;;;;0.90;0.45;;;;;;;;;;5039745;28;20034;-71
2022/07/10 12:56:31;;;;;;;0.40;0.30;;;;;;;;;;5021961;28;20025;-69
2022/07/10 12:58:57;;;;;;;0.40;0.30;;;;;;;;;;5040252;28;20041;-69
2022/07/10 13:01:22;;;;;;;0.40;0.40;;;;;;;;;;5039656;28;20111;-70
2022/07/10 13:03:48;;;;;;;1.25;0.35;;;;;;;;;;5021901;28;20037;-71
2022/07/10 13:06:33;;;;;;;0.30;0.30;;;;;;;;;;5039896;28;20025;-71
2022/07/10 13:08:59;;;;;;;0.52;0.22;;;;;;;;;;5039635;28;20037;-77
2022/07/10 13:11:24;;;;;;;0.68;0.30;;;;;;;;;;5039857;28;20426;-78
2022/07/10 13:13:50;;;;;;;2.10;0.50;;;;;;;;;;5040080;28;20045;-78
2022/07/10 13:16:15;;;;;;;1.02;0.50;;;;;;;;;;5037225;28;20033;-78
2022/07/10 13:18:44;;;;;;;1.80;0.45;;;;;;;;;;5036481;28;20045;-77
2022/07/10 13:21:13;;;;;;;0.77;0.40;;;;;;;;;;5036583;28;20042;-77
2022/07/10 13:23:38;;;;;;;0.68;0.30;;;;;;;;;;5036360;28;20121;-76
2022/07/10 13:26:06;;;;;;;1.15;0.40;;;;;;;;;;5036274;28;20112;-76
2022/07/10 13:28:32;;;;;;;1.05;0.50;;;;;;;;;;5036528;28;20041;-77
2022/07/10 13:30:57;;;;;;;2.00;0.50;;;;;;;;;;5036465;28;20032;-76
2022/07/10 13:33:26;;;;;;;1.55;0.40;;;;;;;;;;5036144;28;20068;-76
2022/07/10 13:35:52;;;;;;;0.22;0.22;;;;;;;;;;5036154;28;20029;-78
2022/07/10 13:38:18;;;;;;;0.88;0.38;;;;;;;;;;5036304;28;20072;-77
2022/07/10 13:40:45;;;;;;;1.92;0.50;;;;;;;;;;5035936;28;20045;-78
2022/07/10 13:43:12;;;;;;;2.08;0.60;;;;;;;;;;5035974;28;20063;-78
2022/07/10 13:45:42;;;;;;;1.52;0.50;;;;;;;;;;5039973;22;20463;-71
2022/07/10 13:48:09;;;;;;;3.53;0.60;;;;;;;;;;5015917;28;20038;-71
2022/07/10 13:50:34;;;;;;;0.65;0.40;;;;;;;;;;5014847;28;20034;-71
2022/07/10 13:53:00;;;;;;;2.05;0.60;;;;;;;;;;5016008;28;20505;-69
2022/07/10 13:55:25;;;;;;;0.40;0.30;;;;;;;;;;4998377;28;20022;-70
2022/07/10 13:57:51;;;;;;;2.15;0.50;;;;;;;;;;5016169;28;20380;-70
2022/07/10 14:00:16;;;;;;;1.42;0.60;;;;;;;;;;5015802;28;20088;-71
2022/07/10 14:02:41;;;;;;;1.63;0.60;;;;;;;;;;5015808;28;20121;-71
2022/07/10 14:05:10;;;;;;;2.55;0.45;;;;;;;;;;5015773;28;20026;-69
2022/07/10 14:07:35;;;;;;;0.57;0.43;;;;;;;;;;4998248;28;20038;-71
2022/07/10 14:10:01;;;;;;;0.50;0.43;;;;;;;;;;5015688;28;20048;-70
2022/07/10 14:12:27;;;;;;;0.40;0.40;;;;;;;;;;5016239;28;20038;-71
2022/07/10 14:14:52;;;;;;;1.17;0.50;;;;;;;;;;5015904;28;20079;-69
2022/07/10 14:17:17;;;;;;;1.83;0.50;;;;;;;;;;4997786;28;20066;-70
2022/07/10 14:19:43;;;;;;;1.08;0.60;;;;;;;;;;4998235;28;20061;-70
2022/07/10 14:22:08;;;;;;;0.88;0.50;;;;;;;;;;4997757;28;20045;-70
2022/07/10 14:24:34;;;;;;;0.73;0.40;;;;;;;;;;4998199;28;20064;-69
2022/07/10 14:27:00;;;;;;;1.10;0.60;;;;;;;;;;5013920;28;20538;-69
2022/07/10 14:29:25;;;;;;;0.73;0.40;;;;;;;;;;5015930;28;20029;-71
2022/07/10 14:31:51;;;;;;;1.33;0.30;;;;;;;;;;5015162;28;20069;-69
2022/07/10 14:34:17;;;;;;;1.85;0.30;;;;;;;;;;5015450;28;20036;-71
2022/07/10 14:36:42;;;;;;;1.20;0.50;;;;;;;;;;5015035;28;20392;-71
2022/07/10 14:39:08;;;;;;;1.05;0.40;;;;;;;;;;5014898;28;20041;-70
2022/07/10 14:41:33;;;;;;;2.17;0.50;;;;;;;;;;5014800;28;20042;-70
2022/07/10 14:43:59;;;;;;;0.40;0.40;;;;;;;;;;5015304;28;20033;-71
2022/07/10 14:46:24;;;;;;;1.83;0.40;;;;;;;;;;5020582;28;20460;-70
2022/07/10 14:48:50;;;;;;;0.82;0.43;;;;;;;;;;5016958;28;20368;-70
2022/07/10 14:51:16;;;;;;;0.68;0.50;;;;;;;;;;5034973;28;20041;-69
2022/07/10 14:53:43;;;;;;;1.40;0.47;;;;;;;;;;5034981;28;20072;-68